Impacts METAR Board
IDs:

KMDW - Chicago/Midway Intl, IL, US

Updated at: 0800 UTC 16 Oct 2018
Potential Impact None Slight Moderate High
Time 15/20Z 15/21Z 15/22Z 15/23Z 16/00Z 16/01Z 16/02Z 16/03Z 16/04Z 16/05Z 16/06Z 16/07Z 16/08Z
Temp47 48 47 46 44 43 42 41 38 38 37 37 35
Dewpt26 26 26 25 26 27 28 28 29 29 29 29 29
Altim30.19 30.20 30.21 30.22 30.24 30.25 30.25 30.24 30.24 30.24 30.24 30.25 30.24
VIS10 10 10 10 10 10 10 10 10 10 10 10 10
CIG-- -- -- -- -- -- -- -- -- -- -- -- --
CoverFEWFEWFEWFEWFEWCLRCLRCLRCLRCLRCLRCLRCLR
FltCatVFRVFRVFRVFRVFRVFRVFRVFRVFRVFRVFRVFRVFR
WX--------------------------
WDir260280280290290280270270210260250220220
WSpd12 14 15 11 7 6 6 5 5 7 6 6 8
WGst21 20 21 -- -- -- -- -- -- -- -- -- --
Raw hourly METARs
KMDW 151953Z 26012G21KT 230V300 10SM FEW048 FEW250 08/M03 A3019 RMK AO2 SLP228 T00831033
KMDW 152053Z 28014G20KT 10SM FEW048 FEW250 09/M03 A3020 RMK AO2 SLP230 T00891033 55002
KMDW 152153Z 28015G21KT 10SM FEW048 FEW250 08/M03 A3021 RMK AO2 SLP234 T00831033
KMDW 152253Z 29011KT 10SM FEW048 FEW250 08/M04 A3022 RMK AO2 SLP240 T00781039
KMDW 152353Z 29007KT 10SM FEW250 07/M03 A3024 RMK AO2 SLP247 T00671033 10089 20067 53014
KMDW 160053Z 28006KT 10SM CLR 06/M03 A3025 RMK AO2 SLP250 T00611028
KMDW 160153Z 27006KT 10SM CLR 06/M02 A3025 RMK AO2 SLP251 T00561022
KMDW 160253Z 27005KT 10SM CLR 05/M02 A3024 RMK AO2 SLP249 T00501022 50003
KMDW 160353Z 21005KT 10SM CLR 03/M02 A3024 RMK AO2 SLP249 T00331017
KMDW 160453Z 26007KT 10SM CLR 03/M02 A3024 RMK AO2 SLP247 T00331017
KMDW 160553Z 25006KT 10SM CLR 03/M02 A3024 RMK AO2 SLP248 T00281017 10072 20028 400890028 55002
KMDW 160653Z 22006KT 10SM CLR 03/M02 A3025 RMK AO2 SLP249 T00281017
KMDW 160753Z 22008KT 10SM CLR 02/M02 A3024 RMK AO2 SLP248 T00171017



Page loaded:  08:27 UTC  |   01:27 AM Pacific  |   02:27 AM Mountain  |   03:27 AM Central  |   04:27 AM Eastern

 

ADVISORIES

FORECASTS

FORECASTS

OBSERVATIONS

USER TOOLS

ABOUT US